sensor_id;sensor_type;location;lat;lon;timestamp;temperature;humidity
584;HTU21D;27024;54.068;12.116;2023-05-21T00:01:29;11.98;97.10
584;HTU21D;27024;54.068;12.116;2023-05-21T00:04:16;12.01;97.47
584;HTU21D;27024;54.068;12.116;2023-05-21T00:07:01;12.01;97.56
584;HTU21D;27024;54.068;12.116;2023-05-21T00:09:47;12.00;97.71
584;HTU21D;27024;54.068;12.116;2023-05-21T00:12:32;11.85;98.47
584;HTU21D;27024;54.068;12.116;2023-05-21T00:15:18;11.94;98.34
584;HTU21D;27024;54.068;12.116;2023-05-21T00:18:04;11.92;98.77
584;HTU21D;27024;54.068;12.116;2023-05-21T00:20:50;11.96;98.84
584;HTU21D;27024;54.068;12.116;2023-05-21T00:23:35;11.92;98.87
584;HTU21D;27024;54.068;12.116;2023-05-21T00:26:22;11.94;99.22
584;HTU21D;27024;54.068;12.116;2023-05-21T00:29:10;11.94;99.48
584;HTU21D;27024;54.068;12.116;2023-05-21T00:31:55;11.98;99.38
584;HTU21D;27024;54.068;12.116;2023-05-21T00:34:41;11.96;99.61
584;HTU21D;27024;54.068;12.116;2023-05-21T00:37:26;12.00;99.80
584;HTU21D;27024;54.068;12.116;2023-05-21T00:40:14;11.99;100.03
584;HTU21D;27024;54.068;12.116;2023-05-21T00:43:00;11.99;100.17
584;HTU21D;27024;54.068;12.116;2023-05-21T00:45:46;12.00;100.23
584;HTU21D;27024;54.068;12.116;2023-05-21T00:48:32;12.01;100.44
584;HTU21D;27024;54.068;12.116;2023-05-21T00:51:18;12.04;100.34
584;HTU21D;27024;54.068;12.116;2023-05-21T00:54:06;12.06;100.39
584;HTU21D;27024;54.068;12.116;2023-05-21T00:56:52;12.02;100.90
584;HTU21D;27024;54.068;12.116;2023-05-21T00:59:37;11.94;101.44
584;HTU21D;27024;54.068;12.116;2023-05-21T01:02:23;11.98;101.50
584;HTU21D;27024;54.068;12.116;2023-05-21T01:05:10;12.00;101.47
584;HTU21D;27024;54.068;12.116;2023-05-21T01:07:56;12.03;101.50
584;HTU21D;27024;54.068;12.116;2023-05-21T01:10:42;12.02;101.66
584;HTU21D;27024;54.068;12.116;2023-05-21T01:13:29;12.01;102.02
584;HTU21D;27024;54.068;12.116;2023-05-21T01:16:15;12.03;102.07
584;HTU21D;27024;54.068;12.116;2023-05-21T01:19:04;12.06;101.97
584;HTU21D;27024;54.068;12.116;2023-05-21T01:21:55;12.03;102.38
584;HTU21D;27024;54.068;12.116;2023-05-21T01:24:44;12.00;102.63
584;HTU21D;27024;54.068;12.116;2023-05-21T01:27:32;12.03;102.71
584;HTU21D;27024;54.068;12.116;2023-05-21T01:30:18;12.00;103.06
584;HTU21D;27024;54.068;12.116;2023-05-21T01:33:16;12.02;103.20
584;HTU21D;27024;54.068;12.116;2023-05-21T01:36:08;12.05;103.10
584;HTU21D;27024;54.068;12.116;2023-05-21T01:39:08;12.04;103.39
584;HTU21D;27024;54.068;12.116;2023-05-21T01:41:54;12.05;103.70
584;HTU21D;27024;54.068;12.116;2023-05-21T01:44:41;12.02;103.79
584;HTU21D;27024;54.068;12.116;2023-05-21T01:47:28;12.06;103.82
584;HTU21D;27024;54.068;12.116;2023-05-21T01:50:16;12.07;103.92
584;HTU21D;27024;54.068;12.116;2023-05-21T01:53:02;12.02;104.43
584;HTU21D;27024;54.068;12.116;2023-05-21T01:55:49;11.99;104.56
584;HTU21D;27024;54.068;12.116;2023-05-21T01:58:34;12.04;104.50
584;HTU21D;27024;54.068;12.116;2023-05-21T02:01:20;12.04;104.53
584;HTU21D;27024;54.068;12.116;2023-05-21T02:04:06;12.02;104.85
584;HTU21D;27024;54.068;12.116;2023-05-21T02:06:51;12.01;105.15
584;HTU21D;27024;54.068;12.116;2023-05-21T02:09:39;12.02;104.94
584;HTU21D;27024;54.068;12.116;2023-05-21T02:12:25;11.96;105.43
584;HTU21D;27024;54.068;12.116;2023-05-21T02:15:12;11.93;105.69
584;HTU21D;27024;54.068;12.116;2023-05-21T02:18:04;11.98;105.55
584;HTU21D;27024;54.068;12.116;2023-05-21T02:20:49;11.98;105.63
584;HTU21D;27024;54.068;12.116;2023-05-21T02:23:34;11.96;105.88
584;HTU21D;27024;54.068;12.116;2023-05-21T02:26:20;11.89;106.30
584;HTU21D;27024;54.068;12.116;2023-05-21T02:29:06;11.92;106.33
584;HTU21D;27024;54.068;12.116;2023-05-21T02:31:51;11.89;106.60
584;HTU21D;27024;54.068;12.116;2023-05-21T02:34:37;11.88;106.75
584;HTU21D;27024;54.068;12.116;2023-05-21T02:37:26;11.84;107.14
584;HTU21D;27024;54.068;12.116;2023-05-21T02:40:12;11.84;107.14
584;HTU21D;27024;54.068;12.116;2023-05-21T02:42:57;11.83;107.35
584;HTU21D;27024;54.068;12.116;2023-05-21T02:45:42;11.81;107.64
584;HTU21D;27024;54.068;12.116;2023-05-21T02:48:28;11.77;107.78
584;HTU21D;27024;54.068;12.116;2023-05-21T02:51:13;11.75;108.13
584;HTU21D;27024;54.068;12.116;2023-05-21T02:53:58;11.76;108.33
584;HTU21D;27024;54.068;12.116;2023-05-21T02:56:44;11.75;108.53
584;HTU21D;27024;54.068;12.116;2023-05-21T02:59:29;11.78;108.72
584;HTU21D;27024;54.068;12.116;2023-05-21T03:02:15;11.77;109.10
584;HTU21D;27024;54.068;12.116;2023-05-21T03:05:01;11.77;109.20
584;HTU21D;27024;54.068;12.116;2023-05-21T03:07:47;11.82;109.05
584;HTU21D;27024;54.068;12.116;2023-05-21T03:10:32;11.82;109.30
584;HTU21D;27024;54.068;12.116;2023-05-21T03:13:17;11.86;109.32
584;HTU21D;27024;54.068;12.116;2023-05-21T03:16:03;11.90;109.23
584;HTU21D;27024;54.068;12.116;2023-05-21T03:18:49;11.92;109.17
584;HTU21D;27024;54.068;12.116;2023-05-21T03:21:34;11.92;109.46
584;HTU21D;27024;54.068;12.116;2023-05-21T03:24:20;11.91;109.70
584;HTU21D;27024;54.068;12.116;2023-05-21T03:27:06;11.91;109.72
584;HTU21D;27024;54.068;12.116;2023-05-21T03:29:52;11.96;109.49
584;HTU21D;27024;54.068;12.116;2023-05-21T03:32:39;12.01;109.30
584;HTU21D;27024;54.068;12.116;2023-05-21T03:35:25;12.02;109.39
584;HTU21D;27024;54.068;12.116;2023-05-21T03:38:10;12.02;109.74
584;HTU21D;27024;54.068;12.116;2023-05-21T03:40:56;12.06;109.72
584;HTU21D;27024;54.068;12.116;2023-05-21T03:43:41;12.10;109.46
584;HTU21D;27024;54.068;12.116;2023-05-21T03:46:26;12.17;109.17
584;HTU21D;27024;54.068;12.116;2023-05-21T03:49:13;12.21;109.15
584;HTU21D;27024;54.068;12.116;2023-05-21T03:51:58;12.27;108.91
584;HTU21D;27024;54.068;12.116;2023-05-21T03:54:44;12.25;109.00
584;HTU21D;27024;54.068;12.116;2023-05-21T03:57:29;12.36;108.61
584;HTU21D;27024;54.068;12.116;2023-05-21T04:00:14;12.34;108.94
584;HTU21D;27024;54.068;12.116;2023-05-21T04:03:00;12.45;108.53
584;HTU21D;27024;54.068;12.116;2023-05-21T04:05:46;12.48;108.59
584;HTU21D;27024;54.068;12.116;2023-05-21T04:08:31;12.49;108.85
584;HTU21D;27024;54.068;12.116;2023-05-21T04:11:16;12.49;108.87
584;HTU21D;27024;54.068;12.116;2023-05-21T04:13:46;12.51;108.98
584;HTU21D;27024;54.068;12.116;2023-05-21T04:16:13;12.52;109.27
584;HTU21D;27024;54.068;12.116;2023-05-21T04:18:45;12.57;109.02
584;HTU21D;27024;54.068;12.116;2023-05-21T04:21:12;12.52;109.10
584;HTU21D;27024;54.068;12.116;2023-05-21T04:23:39;12.58;109.16
584;HTU21D;27024;54.068;12.116;2023-05-21T04:26:06;12.60;108.95
584;HTU21D;27024;54.068;12.116;2023-05-21T04:28:33;12.69;108.65
584;HTU21D;27024;54.068;12.116;2023-05-21T04:31:01;12.63;109.30
584;HTU21D;27024;54.068;12.116;2023-05-21T04:33:28;12.66;108.97
584;HTU21D;27024;54.068;12.116;2023-05-21T04:35:56;12.74;108.70
584;HTU21D;27024;54.068;12.116;2023-05-21T04:38:23;12.76;108.67
584;HTU21D;27024;54.068;12.116;2023-05-21T04:40:50;12.81;108.49
584;HTU21D;27024;54.068;12.116;2023-05-21T04:43:18;12.82;108.70
584;HTU21D;27024;54.068;12.116;2023-05-21T04:45:52;12.88;108.97
584;HTU21D;27024;54.068;12.116;2023-05-21T04:48:24;13.00;108.78
584;HTU21D;27024;54.068;12.116;2023-05-21T04:50:52;13.15;108.32
584;HTU21D;27024;54.068;12.116;2023-05-21T04:53:19;13.35;107.70
584;HTU21D;27024;54.068;12.116;2023-05-21T04:55:46;13.62;106.82
584;HTU21D;27024;54.068;12.116;2023-05-21T04:58:13;13.74;106.66
584;HTU21D;27024;54.068;12.116;2023-05-21T05:00:44;13.79;106.43
584;HTU21D;27024;54.068;12.116;2023-05-21T05:03:17;13.99;106.46
584;HTU21D;27024;54.068;12.116;2023-05-21T05:05:44;14.08;105.50
584;HTU21D;27024;54.068;12.116;2023-05-21T05:08:11;14.20;105.59
584;HTU21D;27024;54.068;12.116;2023-05-21T05:10:41;14.35;105.21
584;HTU21D;27024;54.068;12.116;2023-05-21T05:13:08;14.39;104.88
584;HTU21D;27024;54.068;12.116;2023-05-21T05:15:35;14.41;104.77
584;HTU21D;27024;54.068;12.116;2023-05-21T05:18:02;14.50;104.73
584;HTU21D;27024;54.068;12.116;2023-05-21T05:20:29;14.69;104.21
584;HTU21D;27024;54.068;12.116;2023-05-21T05:22:56;14.82;104.12
584;HTU21D;27024;54.068;12.116;2023-05-21T05:25:23;15.13;102.65
584;HTU21D;27024;54.068;12.116;2023-05-21T05:27:50;15.43;101.36
584;HTU21D;27024;54.068;12.116;2023-05-21T05:30:17;15.91;99.07
584;HTU21D;27024;54.068;12.116;2023-05-21T05:32:44;16.03;98.57
584;HTU21D;27024;54.068;12.116;2023-05-21T05:35:11;15.98;99.90
584;HTU21D;27024;54.068;12.116;2023-05-21T05:37:38;16.17;99.15
584;HTU21D;27024;54.068;12.116;2023-05-21T05:40:05;16.29;98.61
584;HTU21D;27024;54.068;12.116;2023-05-21T05:42:33;15.99;100.17
584;HTU21D;27024;54.068;12.116;2023-05-21T05:45:00;16.12;100.58
584;HTU21D;27024;54.068;12.116;2023-05-21T05:47:27;16.24;100.58
584;HTU21D;27024;54.068;12.116;2023-05-21T05:49:54;16.18;99.90
584;HTU21D;27024;54.068;12.116;2023-05-21T05:52:21;16.47;98.80
584;HTU21D;27024;54.068;12.116;2023-05-21T05:54:48;16.47;99.22
584;HTU21D;27024;54.068;12.116;2023-05-21T05:57:14;16.85;97.41
584;HTU21D;27024;54.068;12.116;2023-05-21T05:59:41;16.86;97.68
584;HTU21D;27024;54.068;12.116;2023-05-21T06:02:08;16.61;99.20
584;HTU21D;27024;54.068;12.116;2023-05-21T06:04:35;16.66;98.93
584;HTU21D;27024;54.068;12.116;2023-05-21T06:07:02;16.52;99.64
584;HTU21D;27024;54.068;12.116;2023-05-21T06:09:29;16.64;99.41
584;HTU21D;27024;54.068;12.116;2023-05-21T06:11:56;16.71;98.98
584;HTU21D;27024;54.068;12.116;2023-05-21T06:14:23;16.76;98.71
584;HTU21D;27024;54.068;12.116;2023-05-21T06:16:50;16.91;98.29
584;HTU21D;27024;54.068;12.116;2023-05-21T06:19:17;17.16;97.19
584;HTU21D;27024;54.068;12.116;2023-05-21T06:21:44;17.44;95.25
584;HTU21D;27024;54.068;12.116;2023-05-21T06:24:11;17.76;94.27
584;HTU21D;27024;54.068;12.116;2023-05-21T06:26:38;18.05;92.41
584;HTU21D;27024;54.068;12.116;2023-05-21T06:29:05;18.10;92.07
584;HTU21D;27024;54.068;12.116;2023-05-21T06:31:32;18.26;91.99
584;HTU21D;27024;54.068;12.116;2023-05-21T06:33:59;18.24;92.18
584;HTU21D;27024;54.068;12.116;2023-05-21T06:36:27;18.15;91.85
584;HTU21D;27024;54.068;12.116;2023-05-21T06:38:55;18.46;90.89
584;HTU21D;27024;54.068;12.116;2023-05-21T06:41:22;18.66;89.67
584;HTU21D;27024;54.068;12.116;2023-05-21T06:43:49;18.99;89.12
584;HTU21D;27024;54.068;12.116;2023-05-21T06:46:17;19.23;88.31
584;HTU21D;27024;54.068;12.116;2023-05-21T06:48:44;19.26;88.57
584;HTU21D;27024;54.068;12.116;2023-05-21T06:51:11;19.37;87.42
584;HTU21D;27024;54.068;12.116;2023-05-21T06:53:38;19.60;85.90
584;HTU21D;27024;54.068;12.116;2023-05-21T06:56:06;19.38;86.93
584;HTU21D;27024;54.068;12.116;2023-05-21T06:58:32;19.50;86.72
584;HTU21D;27024;54.068;12.116;2023-05-21T07:00:59;19.52;86.84
584;HTU21D;27024;54.068;12.116;2023-05-21T07:03:27;19.65;86.64
584;HTU21D;27024;54.068;12.116;2023-05-21T07:05:55;20.07;85.30
584;HTU21D;27024;54.068;12.116;2023-05-21T07:08:22;20.22;84.19
584;HTU21D;27024;54.068;12.116;2023-05-21T07:10:49;19.80;84.72
584;HTU21D;27024;54.068;12.116;2023-05-21T07:13:16;19.61;86.28
584;HTU21D;27024;54.068;12.116;2023-05-21T07:15:43;19.74;85.29
584;HTU21D;27024;54.068;12.116;2023-05-21T07:18:10;20.15;83.61
584;HTU21D;27024;54.068;12.116;2023-05-21T07:20:37;20.41;81.85
584;HTU21D;27024;54.068;12.116;2023-05-21T07:23:04;21.08;79.75
584;HTU21D;27024;54.068;12.116;2023-05-21T07:25:31;21.20;78.99
584;HTU21D;27024;54.068;12.116;2023-05-21T07:27:58;21.33;76.96
584;HTU21D;27024;54.068;12.116;2023-05-21T07:30:25;21.75;75.46
584;HTU21D;27024;54.068;12.116;2023-05-21T07:32:52;22.27;74.92
584;HTU21D;27024;54.068;12.116;2023-05-21T07:35:19;22.16;73.19
584;HTU21D;27024;54.068;12.116;2023-05-21T07:37:45;22.47;71.31
584;HTU21D;27024;54.068;12.116;2023-05-21T07:40:13;22.24;65.59
584;HTU21D;27024;54.068;12.116;2023-05-21T07:42:40;22.43;70.25
584;HTU21D;27024;54.068;12.116;2023-05-21T07:45:07;22.62;69.86
584;HTU21D;27024;54.068;12.116;2023-05-21T07:47:34;22.44;69.45
584;HTU21D;27024;54.068;12.116;2023-05-21T07:50:01;22.13;70.98
584;HTU21D;27024;54.068;12.116;2023-05-21T07:52:28;22.18;72.50
584;HTU21D;27024;54.068;12.116;2023-05-21T07:54:55;21.96;73.35
584;HTU21D;27024;54.068;12.116;2023-05-21T07:57:22;22.21;73.80
584;HTU21D;27024;54.068;12.116;2023-05-21T07:59:49;22.03;75.12
584;HTU21D;27024;54.068;12.116;2023-05-21T08:02:16;22.04;70.43
584;HTU21D;27024;54.068;12.116;2023-05-21T08:04:43;21.90;73.19
584;HTU21D;27024;54.068;12.116;2023-05-21T08:07:10;21.82;75.17
584;HTU21D;27024;54.068;12.116;2023-05-21T08:09:39;21.70;78.06
584;HTU21D;27024;54.068;12.116;2023-05-21T08:12:06;21.89;76.41
584;HTU21D;27024;54.068;12.116;2023-05-21T08:14:33;22.03;76.24
584;HTU21D;27024;54.068;12.116;2023-05-21T08:17:00;21.96;74.98
584;HTU21D;27024;54.068;12.116;2023-05-21T08:19:27;21.89;77.51
584;HTU21D;27024;54.068;12.116;2023-05-21T08:21:54;22.49;73.63
584;HTU21D;27024;54.068;12.116;2023-05-21T08:24:22;22.49;74.83
584;HTU21D;27024;54.068;12.116;2023-05-21T08:26:49;22.67;75.08
584;HTU21D;27024;54.068;12.116;2023-05-21T08:29:16;22.41;72.54
584;HTU21D;27024;54.068;12.116;2023-05-21T08:31:43;22.66;75.02
584;HTU21D;27024;54.068;12.116;2023-05-21T08:34:10;22.67;72.54
584;HTU21D;27024;54.068;12.116;2023-05-21T08:36:37;22.98;72.23
584;HTU21D;27024;54.068;12.116;2023-05-21T08:39:04;23.12;71.95
584;HTU21D;27024;54.068;12.116;2023-05-21T08:41:32;22.98;71.86
584;HTU21D;27024;54.068;12.116;2023-05-21T08:44:01;22.97;72.66
584;HTU21D;27024;54.068;12.116;2023-05-21T08:46:32;22.67;70.01
584;HTU21D;27024;54.068;12.116;2023-05-21T08:49:02;23.05;73.19
584;HTU21D;27024;54.068;12.116;2023-05-21T08:51:29;22.97;71.13
584;HTU21D;27024;54.068;12.116;2023-05-21T08:53:58;23.14;70.99
584;HTU21D;27024;54.068;12.116;2023-05-21T08:56:27;23.11;72.47
584;HTU21D;27024;54.068;12.116;2023-05-21T08:58:55;23.22;70.07
584;HTU21D;27024;54.068;12.116;2023-05-21T09:01:22;22.84;72.29
584;HTU21D;27024;54.068;12.116;2023-05-21T09:03:56;22.90;72.47
584;HTU21D;27024;54.068;12.116;2023-05-21T09:06:34;23.29;71.13
584;HTU21D;27024;54.068;12.116;2023-05-21T09:11:55;23.18;70.86
584;HTU21D;27024;54.068;12.116;2023-05-21T09:14:22;23.50;69.36
584;HTU21D;27024;54.068;12.116;2023-05-21T09:16:50;23.72;71.25
584;HTU21D;27024;54.068;12.116;2023-05-21T09:19:19;23.34;70.26
584;HTU21D;27024;54.068;12.116;2023-05-21T09:21:50;23.35;69.84
584;HTU21D;27024;54.068;12.116;2023-05-21T09:24:20;24.01;66.35
584;HTU21D;27024;54.068;12.116;2023-05-21T09:26:48;23.87;67.04
584;HTU21D;27024;54.068;12.116;2023-05-21T09:29:16;24.08;66.75
584;HTU21D;27024;54.068;12.116;2023-05-21T09:31:43;24.20;63.82
584;HTU21D;27024;54.068;12.116;2023-05-21T09:34:13;24.25;66.07
584;HTU21D;27024;54.068;12.116;2023-05-21T09:36:40;24.87;60.80
584;HTU21D;27024;54.068;12.116;2023-05-21T09:39:07;24.76;62.83
584;HTU21D;27024;54.068;12.116;2023-05-21T09:41:34;25.36;60.60
584;HTU21D;27024;54.068;12.116;2023-05-21T09:44:02;25.79;57.85
584;HTU21D;27024;54.068;12.116;2023-05-21T09:46:39;26.35;54.42
584;HTU21D;27024;54.068;12.116;2023-05-21T09:49:23;26.21;55.04
584;HTU21D;27024;54.068;12.116;2023-05-21T09:51:56;26.52;53.62
584;HTU21D;27024;54.068;12.116;2023-05-21T09:54:24;27.02;51.50
584;HTU21D;27024;54.068;12.116;2023-05-21T09:56:51;26.97;51.23
584;HTU21D;27024;54.068;12.116;2023-05-21T09:59:19;27.36;49.94
584;HTU21D;27024;54.068;12.116;2023-05-21T10:01:50;27.31;49.06
584;HTU21D;27024;54.068;12.116;2023-05-21T10:04:17;27.29;48.29
584;HTU21D;27024;54.068;12.116;2023-05-21T10:06:46;27.74;47.15
584;HTU21D;27024;54.068;12.116;2023-05-21T10:09:14;27.95;48.27
584;HTU21D;27024;54.068;12.116;2023-05-21T10:11:45;27.53;47.44
584;HTU21D;27024;54.068;12.116;2023-05-21T10:14:22;26.98;49.17
584;HTU21D;27024;54.068;12.116;2023-05-21T10:16:51;26.98;49.90
584;HTU21D;27024;54.068;12.116;2023-05-21T10:19:21;26.95;49.08
584;HTU21D;27024;54.068;12.116;2023-05-21T10:21:50;27.04;49.97
584;HTU21D;27024;54.068;12.116;2023-05-21T10:24:18;27.39;48.53
584;HTU21D;27024;54.068;12.116;2023-05-21T10:26:46;27.51;48.45
584;HTU21D;27024;54.068;12.116;2023-05-21T10:29:14;27.27;49.08
584;HTU21D;27024;54.068;12.116;2023-05-21T10:31:45;27.69;46.73
584;HTU21D;27024;54.068;12.116;2023-05-21T10:34:15;27.53;48.04
584;HTU21D;27024;54.068;12.116;2023-05-21T10:36:43;27.68;47.38
584;HTU21D;27024;54.068;12.116;2023-05-21T10:39:12;27.55;45.61
584;HTU21D;27024;54.068;12.116;2023-05-21T10:41:55;27.05;46.69
584;HTU21D;27024;54.068;12.116;2023-05-21T10:47:31;27.34;45.24
584;HTU21D;27024;54.068;12.116;2023-05-21T11:01:31;26.49;46.72
584;HTU21D;27024;54.068;12.116;2023-05-21T11:04:00;26.42;46.54
584;HTU21D;27024;54.068;12.116;2023-05-21T11:06:27;26.35;46.96
584;HTU21D;27024;54.068;12.116;2023-05-21T11:08:54;26.38;47.63
584;HTU21D;27024;54.068;12.116;2023-05-21T11:11:50;26.32;47.71
584;HTU21D;27024;54.068;12.116;2023-05-21T11:14:30;26.55;47.47
584;HTU21D;27024;54.068;12.116;2023-05-21T11:19:41;26.15;47.54
584;HTU21D;27024;54.068;12.116;2023-05-21T11:22:18;26.20;48.73
584;HTU21D;27024;54.068;12.116;2023-05-21T11:24:47;26.12;49.15
584;HTU21D;27024;54.068;12.116;2023-05-21T11:27:40;26.05;49.47
584;HTU21D;27024;54.068;12.116;2023-05-21T11:30:17;26.11;49.84
584;HTU21D;27024;54.068;12.116;2023-05-21T11:38:11;26.24;48.92
584;HTU21D;27024;54.068;12.116;2023-05-21T11:40:49;26.23;49.34
584;HTU21D;27024;54.068;12.116;2023-05-21T11:43:17;26.31;48.68
584;HTU21D;27024;54.068;12.116;2023-05-21T11:45:44;26.07;48.64
584;HTU21D;27024;54.068;12.116;2023-05-21T11:48:12;25.98;49.34
584;HTU21D;27024;54.068;12.116;2023-05-21T11:50:40;25.90;50.95
584;HTU21D;27024;54.068;12.116;2023-05-21T11:53:07;25.88;49.84
584;HTU21D;27024;54.068;12.116;2023-05-21T11:55:37;25.69;51.49
584;HTU21D;27024;54.068;12.116;2023-05-21T11:58:11;25.60;51.86
584;HTU21D;27024;54.068;12.116;2023-05-21T12:00:39;25.68;52.56
584;HTU21D;27024;54.068;12.116;2023-05-21T12:03:06;25.93;51.98
584;HTU21D;27024;54.068;12.116;2023-05-21T12:05:48;25.82;52.48
584;HTU21D;27024;54.068;12.116;2023-05-21T12:08:21;25.67;52.76
584;HTU21D;27024;54.068;12.116;2023-05-21T12:10:58;25.66;53.47
584;HTU21D;27024;54.068;12.116;2023-05-21T12:13:26;25.74;52.88
584;HTU21D;27024;54.068;12.116;2023-05-21T12:15:53;25.94;52.43
584;HTU21D;27024;54.068;12.116;2023-05-21T12:18:20;25.94;52.44
584;HTU21D;27024;54.068;12.116;2023-05-21T12:20:47;26.12;52.98
584;HTU21D;27024;54.068;12.116;2023-05-21T12:23:24;26.31;51.30
584;HTU21D;27024;54.068;12.116;2023-05-21T12:25:51;26.63;50.82
584;HTU21D;27024;54.068;12.116;2023-05-21T12:28:20;26.73;51.05
584;HTU21D;27024;54.068;12.116;2023-05-21T12:30:47;26.87;49.64
584;HTU21D;27024;54.068;12.116;2023-05-21T12:33:14;27.55;47.72
584;HTU21D;27024;54.068;12.116;2023-05-21T12:35:48;27.53;47.11
584;HTU21D;27024;54.068;12.116;2023-05-21T12:38:16;27.68;45.90
584;HTU21D;27024;54.068;12.116;2023-05-21T12:40:43;28.11;44.67
584;HTU21D;27024;54.068;12.116;2023-05-21T12:43:11;27.93;46.07
584;HTU21D;27024;54.068;12.116;2023-05-21T12:45:38;27.93;45.51
584;HTU21D;27024;54.068;12.116;2023-05-21T12:48:05;27.95;45.68
584;HTU21D;27024;54.068;12.116;2023-05-21T12:50:37;28.63;42.94
584;HTU21D;27024;54.068;12.116;2023-05-21T12:53:07;28.42;44.26
584;HTU21D;27024;54.068;12.116;2023-05-21T12:55:34;28.52;44.22
584;HTU21D;27024;54.068;12.116;2023-05-21T12:58:03;29.08;42.56
584;HTU21D;27024;54.068;12.116;2023-05-21T13:00:31;29.00;42.65
584;HTU21D;27024;54.068;12.116;2023-05-21T13:02:59;28.85;42.99
584;HTU21D;27024;54.068;12.116;2023-05-21T13:05:27;29.05;41.62
584;HTU21D;27024;54.068;12.116;2023-05-21T13:07:54;28.59;42.56
584;HTU21D;27024;54.068;12.116;2023-05-21T13:10:21;29.65;39.85
584;HTU21D;27024;54.068;12.116;2023-05-21T13:12:48;28.80;42.55
584;HTU21D;27024;54.068;12.116;2023-05-21T13:15:15;28.60;43.12
584;HTU21D;27024;54.068;12.116;2023-05-21T13:17:42;28.72;42.42
584;HTU21D;27024;54.068;12.116;2023-05-21T13:20:20;28.44;42.86
584;HTU21D;27024;54.068;12.116;2023-05-21T13:22:50;28.37;42.85
584;HTU21D;27024;54.068;12.116;2023-05-21T13:25:19;28.15;43.18
584;HTU21D;27024;54.068;12.116;2023-05-21T13:27:48;28.37;42.64
584;HTU21D;27024;54.068;12.116;2023-05-21T13:30:15;28.18;43.42
584;HTU21D;27024;54.068;12.116;2023-05-21T13:32:43;28.18;43.35
584;HTU21D;27024;54.068;12.116;2023-05-21T13:35:10;28.44;42.95
584;HTU21D;27024;54.068;12.116;2023-05-21T13:37:39;28.26;43.15
584;HTU21D;27024;54.068;12.116;2023-05-21T13:40:08;27.93;44.09
584;HTU21D;27024;54.068;12.116;2023-05-21T13:42:37;28.18;44.16
584;HTU21D;27024;54.068;12.116;2023-05-21T13:45:09;28.01;44.35
584;HTU21D;27024;54.068;12.116;2023-05-21T13:47:37;28.28;44.18
584;HTU21D;27024;54.068;12.116;2023-05-21T13:50:07;28.17;43.78
584;HTU21D;27024;54.068;12.116;2023-05-21T13:52:35;28.35;42.90
584;HTU21D;27024;54.068;12.116;2023-05-21T13:55:02;28.34;43.35
584;HTU21D;27024;54.068;12.116;2023-05-21T13:57:29;28.01;44.06
584;HTU21D;27024;54.068;12.116;2023-05-21T13:59:57;27.84;43.82
584;HTU21D;27024;54.068;12.116;2023-05-21T14:02:24;28.13;42.90
584;HTU21D;27024;54.068;12.116;2023-05-21T14:04:52;27.98;43.26
584;HTU21D;27024;54.068;12.116;2023-05-21T14:07:19;27.72;43.64
584;HTU21D;27024;54.068;12.116;2023-05-21T14:09:47;27.61;44.27
584;HTU21D;27024;54.068;12.116;2023-05-21T14:12:14;27.55;45.09
584;HTU21D;27024;54.068;12.116;2023-05-21T14:14:41;27.81;43.96
584;HTU21D;27024;54.068;12.116;2023-05-21T14:17:08;27.34;44.95
584;HTU21D;27024;54.068;12.116;2023-05-21T14:19:35;27.37;44.33
584;HTU21D;27024;54.068;12.116;2023-05-21T14:22:02;26.77;45.41
584;HTU21D;27024;54.068;12.116;2023-05-21T14:24:29;27.28;44.09
584;HTU21D;27024;54.068;12.116;2023-05-21T14:26:56;26.76;45.85
584;HTU21D;27024;54.068;12.116;2023-05-21T14:29:23;27.04;45.00
584;HTU21D;27024;54.068;12.116;2023-05-21T14:31:50;26.87;44.22
584;HTU21D;27024;54.068;12.116;2023-05-21T14:34:17;26.69;44.54
584;HTU21D;27024;54.068;12.116;2023-05-21T14:36:44;26.90;45.68
584;HTU21D;27024;54.068;12.116;2023-05-21T14:39:10;26.76;45.32
584;HTU21D;27024;54.068;12.116;2023-05-21T14:41:38;27.20;43.72
584;HTU21D;27024;54.068;12.116;2023-05-21T14:44:05;27.26;43.24
584;HTU21D;27024;54.068;12.116;2023-05-21T14:46:32;27.09;44.44
584;HTU21D;27024;54.068;12.116;2023-05-21T14:48:59;27.16;43.90
584;HTU21D;27024;54.068;12.116;2023-05-21T14:51:26;27.07;44.32
584;HTU21D;27024;54.068;12.116;2023-05-21T14:53:53;27.25;43.42
584;HTU21D;27024;54.068;12.116;2023-05-21T14:56:21;27.37;43.67
584;HTU21D;27024;54.068;12.116;2023-05-21T14:58:48;27.00;44.54
584;HTU21D;27024;54.068;12.116;2023-05-21T15:01:16;26.82;44.55
584;HTU21D;27024;54.068;12.116;2023-05-21T15:03:42;26.54;46.08
584;HTU21D;27024;54.068;12.116;2023-05-21T15:06:09;26.65;45.88
584;HTU21D;27024;54.068;12.116;2023-05-21T15:08:36;26.42;45.77
584;HTU21D;27024;54.068;12.116;2023-05-21T15:11:03;26.08;47.34
584;HTU21D;27024;54.068;12.116;2023-05-21T15:13:33;25.93;48.27
584;HTU21D;27024;54.068;12.116;2023-05-21T15:16:00;25.83;48.11
584;HTU21D;27024;54.068;12.116;2023-05-21T15:18:27;25.53;49.11
584;HTU21D;27024;54.068;12.116;2023-05-21T15:20:55;25.90;48.55
584;HTU21D;27024;54.068;12.116;2023-05-21T15:23:22;25.80;48.90
584;HTU21D;27024;54.068;12.116;2023-05-21T15:25:48;25.46;50.23
584;HTU21D;27024;54.068;12.116;2023-05-21T15:28:15;25.44;50.76
584;HTU21D;27024;54.068;12.116;2023-05-21T15:30:42;25.25;50.50
584;HTU21D;27024;54.068;12.116;2023-05-21T15:33:10;25.02;52.16
584;HTU21D;27024;54.068;12.116;2023-05-21T15:35:37;24.99;52.70
584;HTU21D;27024;54.068;12.116;2023-05-21T15:38:05;25.03;52.44
584;HTU21D;27024;54.068;12.116;2023-05-21T15:40:31;24.87;52.73
584;HTU21D;27024;54.068;12.116;2023-05-21T15:42:58;24.71;53.17
584;HTU21D;27024;54.068;12.116;2023-05-21T15:45:28;24.78;53.06
584;HTU21D;27024;54.068;12.116;2023-05-21T15:47:55;24.55;54.40
584;HTU21D;27024;54.068;12.116;2023-05-21T15:50:22;24.38;55.25
584;HTU21D;27024;54.068;12.116;2023-05-21T15:52:48;24.47;55.19
584;HTU21D;27024;54.068;12.116;2023-05-21T15:55:19;24.47;55.20
584;HTU21D;27024;54.068;12.116;2023-05-21T15:57:46;24.53;55.66
584;HTU21D;27024;54.068;12.116;2023-05-21T16:00:13;24.46;56.13
584;HTU21D;27024;54.068;12.116;2023-05-21T16:02:40;24.30;55.82
584;HTU21D;27024;54.068;12.116;2023-05-21T16:05:08;24.26;55.49
584;HTU21D;27024;54.068;12.116;2023-05-21T16:07:35;24.40;55.23
584;HTU21D;27024;54.068;12.116;2023-05-21T16:10:04;24.20;56.36
584;HTU21D;27024;54.068;12.116;2023-05-21T16:12:31;24.16;55.55
584;HTU21D;27024;54.068;12.116;2023-05-21T16:14:58;24.05;55.87
584;HTU21D;27024;54.068;12.116;2023-05-21T16:17:25;23.94;56.64
584;HTU21D;27024;54.068;12.116;2023-05-21T16:19:52;23.85;57.27
584;HTU21D;27024;54.068;12.116;2023-05-21T16:22:19;23.94;56.97
584;HTU21D;27024;54.068;12.116;2023-05-21T16:24:46;23.81;57.62
584;HTU21D;27024;54.068;12.116;2023-05-21T16:27:13;23.72;58.28